METAR AND TAF INFORMATION
METAR FOR SBJR
ADDS - METARS form results

(1128 UTC 19 January 2019)
Data provider http://aviationweather.gov/metar/data/
 
METAR text: SBJR 191100Z 02001KT CAVOK 30/24 Q1011
Conditions at: SBJR (RIO/JACAREPAGUA , BR) observed 1100 UTC 19 January 2019
Temperature: 30.0°C (86°F)
Dewpoint: 24.0°C (75°F) [RH = 70%]
Pressure (altimeter): 29.85 inches Hg (1011.0 mb)
Winds: from the NNE (20 degrees) at 1 MPH (1 knots; 0.5 m/s)
Visibility: 6 or more miles (10+ km)
Ceiling: ceiling and visibility are OK
Clouds: unknown
Weather: no significant weather observed at this time

 AIRPORT MAP

 RUNWAY INFORMATION
Runway 2 Runway length 2953 ft Runway width 98 ft
Runway elevation 0 ft Runway displaced threshold 0 ft Runway heading 0
Runway 20 Runway length 2953 ft Runway width 98 ft
Runway elevation 0 ft Runway displaced threshold 0 ft Runway heading 0

 AIRPORT FREQUENCIES

 AIRPORT NEAR NAVIGATION AIDS
Type NDB Name Jacarepagua Frequency 205 KHZ



Powered by Virtual Airlines Manager [v2.6.2]